createdAt,value
2023-05-10T00:01:44.615Z,70.00
2023-05-10T00:06:04.290Z,70.30
2023-05-10T00:10:23.981Z,70.30
2023-05-10T00:14:41.868Z,70.80
2023-05-10T00:19:00.834Z,71.00
2023-05-10T00:23:19.615Z,71.10
2023-05-10T00:27:39.079Z,71.30
2023-05-10T00:31:57.388Z,71.30
2023-05-10T00:36:18.364Z,71.40
2023-05-10T00:40:39.678Z,71.50
2023-05-10T00:45:04.600Z,71.80
2023-05-10T00:49:23.373Z,72.20
2023-05-10T00:53:40.531Z,72.40
2023-05-10T00:57:59.999Z,72.80
2023-05-10T01:02:19.624Z,73.00
2023-05-10T01:06:39.555Z,73.30
2023-05-10T01:10:59.429Z,73.70
2023-05-10T01:15:19.485Z,74.00
2023-05-10T01:19:39.154Z,74.20
2023-05-10T01:24:25.911Z,74.30
2023-05-10T01:29:13.872Z,74.50
2023-05-10T01:33:41.453Z,74.70
2023-05-10T01:38:10.065Z,74.90
2023-05-10T01:42:38.671Z,75.10
2023-05-10T01:47:06.617Z,75.10
2023-05-10T01:51:30.184Z,75.00
2023-05-10T01:55:51.420Z,75.00
2023-05-10T02:00:13.245Z,75.20
2023-05-10T02:04:38.466Z,75.30
2023-05-10T02:08:59.129Z,75.40
2023-05-10T02:13:19.146Z,75.60
2023-05-10T02:17:41.031Z,75.60
2023-05-10T02:22:02.265Z,75.90
2023-05-10T02:26:24.816Z,76.20
2023-05-10T02:30:42.614Z,76.30
2023-05-10T02:35:02.950Z,76.60
2023-05-10T02:39:22.833Z,76.70
2023-05-10T02:43:45.398Z,77.00
2023-05-10T02:48:03.885Z,77.30
2023-05-10T02:52:27.401Z,77.60
2023-05-10T02:56:52.729Z,78.10
2023-05-10T03:01:11.557Z,78.50
2023-05-10T03:05:30.945Z,79.00
2023-05-10T03:09:52.257Z,79.20
2023-05-10T03:14:18.696Z,79.60
2023-05-10T03:18:46.578Z,80.10
2023-05-10T03:23:09.443Z,80.50
2023-05-10T03:27:30.216Z,80.60
2023-05-10T03:31:50.384Z,81.00
2023-05-10T03:36:10.351Z,81.40
2023-05-10T03:40:32.650Z,82.10
2023-05-10T03:44:50.934Z,82.30
2023-05-10T03:49:08.575Z,82.80
2023-05-10T03:53:30.866Z,81.40
2023-05-10T03:57:51.219Z,80.80
2023-05-10T04:02:08.839Z,79.90
2023-05-10T04:06:30.725Z,78.60
2023-05-10T04:10:52.953Z,76.90
2023-05-10T04:15:12.366Z,74.20
2023-05-10T04:19:32.266Z,72.60
2023-05-10T04:23:51.650Z,70.90
2023-05-10T04:28:11.269Z,69.50
2023-05-10T04:32:30.843Z,68.10
2023-05-10T04:36:48.954Z,66.60
2023-05-10T04:41:07.664Z,65.50
2023-05-10T04:45:26.493Z,64.80
2023-05-10T04:49:47.802Z,63.50
2023-05-10T04:54:07.147Z,61.10
2023-05-10T04:58:25.093Z,58.70
2023-05-10T05:02:46.777Z,57.80
2023-05-10T05:07:04.270Z,56.70
2023-05-10T05:11:23.161Z,56.40
2023-05-10T05:15:40.304Z,55.60
2023-05-10T05:20:00.256Z,55.10
2023-05-10T05:24:19.518Z,53.70
2023-05-10T05:28:38.392Z,52.20
2023-05-10T05:32:57.285Z,51.80
2023-05-10T05:37:18.845Z,51.50
2023-05-10T05:41:37.887Z,50.90
2023-05-10T05:45:55.869Z,50.60
2023-05-10T05:50:14.190Z,51.20
2023-05-10T05:54:34.064Z,51.10
2023-05-10T05:58:53.161Z,50.60
2023-05-10T06:03:11.704Z,49.60
2023-05-10T06:07:29.181Z,49.50
2023-05-10T06:11:49.242Z,50.40
2023-05-10T06:16:08.845Z,50.00
2023-05-10T06:20:26.576Z,50.10
2023-05-10T06:24:44.560Z,51.40
2023-05-10T06:29:04.518Z,52.50
2023-05-10T06:33:23.761Z,54.40
2023-05-10T06:37:41.913Z,54.60
2023-05-10T06:41:59.868Z,55.60
2023-05-10T06:46:25.403Z,56.60
2023-05-10T06:50:45.089Z,57.30
2023-05-10T06:55:04.019Z,58.00
2023-05-10T06:59:22.694Z,58.50
2023-05-10T07:03:43.660Z,58.70
2023-05-10T07:08:04.345Z,56.80
2023-05-10T07:12:21.594Z,53.70
2023-05-10T07:16:39.614Z,51.70
2023-05-10T07:20:59.845Z,48.70
2023-05-10T07:25:18.960Z,46.90
2023-05-10T07:29:37.141Z,46.10
2023-05-10T07:33:54.904Z,46.10
2023-05-10T07:38:14.449Z,46.00
2023-05-10T07:42:34.132Z,45.60
2023-05-10T07:46:52.589Z,46.00
2023-05-10T07:51:12.983Z,46.80
2023-05-10T07:55:33.071Z,48.00
2023-05-10T07:59:52.644Z,49.30
2023-05-10T08:04:10.939Z,50.20
2023-05-10T08:08:28.666Z,51.30
2023-05-10T08:12:48.072Z,51.90
2023-05-10T08:17:07.670Z,52.50
2023-05-10T08:21:25.907Z,52.90
2023-05-10T08:25:43.733Z,53.40
2023-05-10T08:30:03.291Z,54.00
2023-05-10T08:34:23.292Z,54.30
2023-05-10T08:38:41.189Z,54.90
2023-05-10T08:43:05.182Z,55.60
2023-05-10T08:47:24.860Z,56.50
2023-05-10T08:51:49.260Z,57.10
2023-05-10T08:56:09.300Z,57.90
2023-05-10T09:00:26.826Z,58.70
2023-05-10T09:04:46.593Z,59.90
2023-05-10T09:09:06.424Z,60.70
2023-05-10T09:13:25.029Z,61.50
2023-05-10T09:17:46.127Z,62.10
2023-05-10T09:22:04.633Z,62.40
2023-05-10T09:26:27.782Z,62.80
2023-05-10T09:30:45.435Z,63.50
2023-05-10T09:35:09.375Z,64.40
2023-05-10T09:39:39.850Z,65.40
2023-05-10T09:43:58.637Z,66.80
2023-05-10T09:48:16.006Z,67.80
2023-05-10T09:52:48.975Z,70.00
2023-05-10T09:57:20.869Z,77.00
2023-05-10T10:01:38.321Z,85.90
2023-05-10T10:05:57.014Z,92.90
2023-05-10T10:10:17.273Z,96.30
2023-05-10T10:14:37.061Z,98.60
2023-05-10T10:18:56.664Z,99.90
2023-05-10T10:23:16.662Z,99.90
2023-05-10T10:27:45.506Z,99.90
2023-05-10T10:32:13.214Z,99.90
2023-05-10T10:36:34.977Z,99.90
2023-05-10T10:41:07.988Z,99.90
2023-05-10T10:45:28.741Z,99.90
2023-05-10T10:49:53.962Z,99.90
2023-05-10T10:54:16.599Z,99.90
2023-05-10T10:58:34.470Z,99.90
2023-05-10T11:02:53.947Z,99.90
2023-05-10T11:07:21.834Z,99.90
2023-05-10T11:11:51.334Z,99.90
2023-05-10T11:16:16.487Z,99.90
2023-05-10T11:20:41.751Z,99.90
2023-05-10T11:25:00.777Z,99.90
2023-05-10T11:29:21.051Z,99.90
2023-05-10T11:33:45.667Z,99.90
2023-05-10T11:38:08.242Z,99.90
2023-05-10T11:42:30.414Z,99.90
2023-05-10T11:46:48.148Z,99.90
2023-05-10T11:51:06.147Z,99.90
2023-05-10T11:55:25.275Z,99.90
2023-05-10T11:59:46.831Z,99.90
2023-05-10T12:04:06.916Z,99.90
2023-05-10T12:08:25.905Z,99.90
2023-05-10T12:12:46.704Z,99.90
2023-05-10T12:17:07.997Z,99.90
2023-05-10T12:21:30.044Z,99.90
2023-05-10T12:25:49.083Z,99.90
2023-05-10T12:30:08.095Z,99.90
2023-05-10T12:34:34.034Z,99.90
2023-05-10T12:38:53.682Z,99.90
2023-05-10T12:43:13.390Z,99.90
2023-05-10T12:47:31.402Z,99.90
2023-05-10T12:51:50.887Z,99.90
2023-05-10T12:56:10.799Z,99.90
2023-05-10T13:00:28.819Z,99.90
2023-05-10T13:04:48.957Z,99.90
2023-05-10T13:09:21.576Z,99.90
2023-05-10T13:13:48.174Z,99.90
2023-05-10T13:18:05.502Z,99.90
2023-05-10T13:22:36.345Z,99.90
2023-05-10T13:27:01.730Z,99.90
2023-05-10T13:31:21.706Z,99.90
2023-05-10T13:35:39.152Z,99.90
2023-05-10T13:39:57.302Z,99.90
2023-05-10T13:44:17.060Z,99.90
2023-05-10T13:48:39.110Z,99.90
2023-05-10T13:52:57.467Z,99.90
2023-05-10T13:57:17.743Z,99.90
2023-05-10T14:01:38.025Z,99.90
2023-05-10T14:05:57.943Z,99.90
2023-05-10T14:10:16.298Z,99.90
2023-05-10T14:14:34.017Z,99.90
2023-05-10T14:18:53.398Z,99.90
2023-05-10T14:23:13.511Z,99.90
2023-05-10T14:27:31.414Z,99.90
2023-05-10T14:31:49.328Z,99.90
2023-05-10T14:36:09.835Z,99.90
2023-05-10T14:40:28.541Z,99.90
2023-05-10T14:44:46.567Z,99.90
2023-05-10T14:49:04.564Z,99.90
2023-05-10T14:53:23.887Z,99.90
2023-05-10T14:57:45.119Z,99.90
2023-05-10T15:02:05.296Z,99.90
2023-05-10T15:06:32.551Z,99.90
2023-05-10T15:10:51.463Z,99.90
2023-05-10T15:15:11.458Z,99.90
2023-05-10T15:19:29.806Z,99.90
2023-05-10T15:23:47.319Z,99.90
2023-05-10T15:28:07.189Z,99.90
2023-05-10T15:32:26.714Z,99.90
2023-05-10T15:36:44.542Z,99.90
2023-05-10T15:41:02.665Z,99.90
2023-05-10T15:45:22.772Z,99.90
2023-05-10T15:49:42.092Z,99.90
2023-05-10T15:54:07.233Z,99.90
2023-05-10T15:58:27.105Z,99.90
2023-05-10T16:02:46.804Z,99.90
2023-05-10T16:07:06.403Z,99.90
2023-05-10T16:11:24.570Z,99.90
2023-05-10T16:15:43.041Z,99.90
2023-05-10T16:20:02.455Z,99.90
2023-05-10T16:24:22.426Z,99.90
2023-05-10T16:28:40.316Z,99.90
2023-05-10T16:32:58.041Z,99.90
2023-05-10T16:37:17.499Z,99.90
2023-05-10T16:41:37.291Z,99.90
2023-05-10T16:45:55.034Z,99.90
2023-05-10T16:50:40.233Z,99.90
2023-05-10T16:54:59.130Z,99.90
2023-05-10T16:59:17.493Z,99.90
2023-05-10T17:03:34.981Z,99.90
2023-05-10T17:07:56.278Z,99.90
2023-05-10T17:12:14.193Z,99.90
2023-05-10T17:16:32.063Z,99.90
2023-05-10T17:20:50.593Z,99.90
2023-05-10T17:25:10.653Z,99.90
2023-05-10T17:29:29.478Z,99.90
2023-05-10T17:33:47.519Z,99.90
2023-05-10T17:38:05.796Z,99.90
2023-05-10T17:42:25.114Z,99.90
2023-05-10T17:46:44.610Z,99.90
2023-05-10T17:51:02.822Z,99.90
2023-05-10T17:55:20.980Z,99.90
2023-05-10T17:59:40.120Z,99.90
2023-05-10T18:03:59.951Z,99.90
2023-05-10T18:08:22.654Z,99.90
2023-05-10T18:12:42.190Z,99.90
2023-05-10T18:17:02.284Z,99.90
2023-05-10T18:21:21.829Z,99.90
2023-05-10T18:25:40.038Z,99.90
2023-05-10T18:29:57.672Z,99.90
2023-05-10T18:34:16.983Z,99.90
2023-05-10T18:38:37.252Z,99.90
2023-05-10T18:42:54.678Z,99.90
2023-05-10T18:47:12.987Z,99.90
2023-05-10T18:51:32.552Z,99.90
2023-05-10T18:55:58.678Z,99.90
2023-05-10T19:00:16.612Z,99.90
2023-05-10T19:04:34.214Z,99.90
2023-05-10T19:08:53.784Z,99.90
2023-05-10T19:13:15.059Z,99.90
2023-05-10T19:17:36.337Z,99.90
2023-05-10T19:21:55.678Z,99.90
2023-05-10T19:26:15.232Z,99.90
2023-05-10T19:30:34.923Z,99.90
2023-05-10T19:34:53.265Z,99.90
2023-05-10T19:39:11.688Z,99.90
2023-05-10T19:43:34.070Z,99.90
2023-05-10T19:47:53.193Z,99.90
2023-05-10T19:52:12.240Z,99.90
2023-05-10T19:56:32.448Z,99.90
2023-05-10T20:00:51.764Z,99.90
2023-05-10T20:05:12.253Z,99.90
2023-05-10T20:09:29.784Z,99.90
2023-05-10T20:13:47.833Z,99.90
2023-05-10T20:18:07.732Z,99.90
2023-05-10T20:22:27.727Z,99.90
2023-05-10T20:26:45.132Z,99.90
2023-05-10T20:31:03.445Z,99.90
2023-05-10T20:35:22.549Z,99.90
2023-05-10T20:39:42.266Z,99.90
2023-05-10T20:44:00.462Z,99.90
2023-05-10T20:48:19.781Z,99.90
2023-05-10T20:52:40.944Z,99.90
2023-05-10T20:57:03.648Z,99.90
2023-05-10T21:01:23.740Z,99.90
2023-05-10T21:05:43.567Z,99.90
2023-05-10T21:10:06.259Z,99.90
2023-05-10T21:14:24.989Z,99.90
2023-05-10T21:18:43.023Z,99.90
2023-05-10T21:23:01.735Z,99.90
2023-05-10T21:27:20.790Z,99.90
2023-05-10T21:31:40.263Z,99.90
2023-05-10T21:35:58.269Z,99.90
2023-05-10T21:40:16.976Z,99.90
2023-05-10T21:44:37.103Z,99.90
2023-05-10T21:48:55.688Z,99.90
2023-05-10T21:53:13.554Z,99.90
2023-05-10T21:57:31.746Z,99.90
2023-05-10T22:01:51.118Z,99.90
2023-05-10T22:06:10.892Z,99.90
2023-05-10T22:10:29.448Z,99.90
2023-05-10T22:14:48.647Z,99.90
2023-05-10T22:19:12.774Z,99.90
2023-05-10T22:23:32.119Z,99.90
2023-05-10T22:27:50.288Z,99.90
2023-05-10T22:32:08.322Z,99.90
2023-05-10T22:36:27.775Z,99.90
2023-05-10T22:40:47.552Z,99.90
2023-05-10T22:45:07.035Z,99.90
2023-05-10T22:49:26.914Z,99.90
2023-05-10T22:53:46.836Z,99.90
2023-05-10T22:58:05.988Z,99.90
2023-05-10T23:02:23.996Z,99.90
2023-05-10T23:06:42.186Z,99.90
2023-05-10T23:11:01.824Z,99.90
2023-05-10T23:15:21.220Z,99.90
2023-05-10T23:19:39.331Z,99.90
2023-05-10T23:23:57.302Z,99.90
2023-05-10T23:28:16.722Z,99.90
2023-05-10T23:32:36.576Z,99.90
2023-05-10T23:36:54.610Z,99.90
2023-05-10T23:41:12.689Z,99.90
2023-05-10T23:45:32.429Z,99.90
2023-05-10T23:49:51.895Z,99.90
2023-05-10T23:54:09.852Z,99.90
2023-05-10T23:58:31.428Z,99.90
